createdAt,value
2018-04-24T00:00:12.081Z,12.10
2018-04-24T00:02:40.434Z,12.10
2018-04-24T00:05:09.493Z,12.10
2018-04-24T00:07:37.813Z,12.10
2018-04-24T00:10:06.854Z,12.10
2018-04-24T00:12:35.217Z,12.10
2018-04-24T00:15:03.560Z,12.20
2018-04-24T00:17:32.730Z,12.10
2018-04-24T00:20:01.047Z,12.10
2018-04-24T00:22:29.420Z,12.00
2018-04-24T00:24:57.792Z,12.00
2018-04-24T00:27:26.140Z,11.90
2018-04-24T00:29:54.649Z,11.80
2018-04-24T00:32:22.960Z,11.90
2018-04-24T00:34:51.245Z,11.80
2018-04-24T00:37:19.571Z,11.70
2018-04-24T00:39:47.856Z,11.60
2018-04-24T00:42:16.170Z,11.70
2018-04-24T00:44:44.464Z,11.70
2018-04-24T00:47:12.795Z,11.70
2018-04-24T00:49:41.113Z,11.70
2018-04-24T00:52:09.445Z,11.80
2018-04-24T00:54:37.736Z,11.80
2018-04-24T00:57:06.061Z,11.80
2018-04-24T00:59:34.397Z,11.80
2018-04-24T01:02:02.758Z,11.70
2018-04-24T01:04:31.122Z,11.70
2018-04-24T01:07:00.267Z,11.70
2018-04-24T01:09:28.619Z,11.60
2018-04-24T01:11:56.992Z,11.70
2018-04-24T01:14:26.099Z,11.60
2018-04-24T01:16:54.485Z,11.60
2018-04-24T01:19:22.818Z,11.60
2018-04-24T01:21:51.229Z,11.60
2018-04-24T01:24:20.348Z,11.50
2018-04-24T01:26:48.723Z,11.50
2018-04-24T01:29:17.132Z,11.60
2018-04-24T01:31:45.463Z,11.50
2018-04-24T01:34:14.578Z,11.60
2018-04-24T01:36:42.928Z,11.60
2018-04-24T01:39:12.112Z,11.70
2018-04-24T01:41:40.456Z,11.70
2018-04-24T01:44:08.882Z,11.60
2018-04-24T01:46:37.258Z,11.50
2018-04-24T01:49:05.604Z,11.40
2018-04-24T01:51:34.806Z,11.30
2018-04-24T01:54:03.175Z,11.30
2018-04-24T01:56:31.496Z,11.40
2018-04-24T01:58:59.858Z,11.40
2018-04-24T02:01:28.238Z,11.40
2018-04-24T02:03:57.371Z,11.50
2018-04-24T02:06:25.655Z,11.50
2018-04-24T02:08:53.984Z,11.50
2018-04-24T02:11:22.266Z,11.60
2018-04-24T02:13:50.597Z,11.60
2018-04-24T02:16:18.903Z,11.60
2018-04-24T02:18:47.213Z,11.60
2018-04-24T02:21:15.510Z,11.70
2018-04-24T02:23:43.831Z,11.60
2018-04-24T02:26:12.117Z,11.60
2018-04-24T02:28:40.428Z,11.70
2018-04-24T02:31:08.753Z,11.70
2018-04-24T02:33:37.149Z,11.60
2018-04-24T02:36:05.572Z,11.50
2018-04-24T02:38:34.684Z,11.00
2018-04-24T02:41:03.115Z,11.00
2018-04-24T02:43:31.424Z,11.00
2018-04-24T02:46:00.483Z,11.10
2018-04-24T02:48:28.794Z,11.00
2018-04-24T02:50:57.852Z,11.10
2018-04-24T02:53:26.157Z,11.10
2018-04-24T02:55:54.453Z,11.10
2018-04-24T02:58:23.522Z,11.00
2018-04-24T03:00:51.812Z,11.00
2018-04-24T03:03:20.132Z,10.90
2018-04-24T03:05:48.417Z,11.00
2018-04-24T03:08:16.721Z,10.90
2018-04-24T03:10:45.794Z,11.00
2018-04-24T03:13:14.099Z,11.00
2018-04-24T03:15:42.414Z,11.00
2018-04-24T03:18:10.728Z,11.00
2018-04-24T03:20:39.050Z,10.90
2018-04-24T03:23:07.360Z,10.90
2018-04-24T03:25:35.673Z,10.70
2018-04-24T03:28:03.959Z,10.70
2018-04-24T03:30:32.285Z,10.70
2018-04-24T03:33:00.595Z,10.80
2018-04-24T03:35:28.914Z,10.80
2018-04-24T03:37:57.980Z,10.90
2018-04-24T03:40:26.286Z,11.00
2018-04-24T03:42:55.345Z,11.00
2018-04-24T03:45:23.652Z,11.00
2018-04-24T03:47:51.956Z,10.90
2018-04-24T03:50:21.030Z,10.70
2018-04-24T03:52:49.313Z,10.70
2018-04-24T03:55:18.388Z,10.90
2018-04-24T03:57:46.675Z,10.90
2018-04-24T04:00:15.004Z,10.90
2018-04-24T04:02:43.285Z,10.90
2018-04-24T04:05:11.595Z,11.00
2018-04-24T04:07:39.941Z,11.00
2018-04-24T04:10:08.968Z,10.60
2018-04-24T04:12:37.253Z,10.60
2018-04-24T04:15:05.552Z,10.60
2018-04-24T04:17:46.682Z,10.70
2018-04-24T04:20:26.795Z,10.60
2018-04-24T04:23:06.920Z,10.70
2018-04-24T04:25:35.224Z,10.60
2018-04-24T04:28:03.510Z,10.70
2018-04-24T04:30:31.838Z,10.70
2018-04-24T04:33:00.181Z,10.70
2018-04-24T04:35:29.224Z,10.70
2018-04-24T04:37:57.504Z,10.70
2018-04-24T04:40:26.593Z,10.60
2018-04-24T04:42:54.880Z,10.60
2018-04-24T04:45:23.188Z,10.40
2018-04-24T04:47:51.502Z,10.40
2018-04-24T04:50:19.810Z,10.40
2018-04-24T04:52:48.100Z,10.50
2018-04-24T04:55:17.174Z,10.60
2018-04-24T04:57:45.458Z,10.60
2018-04-24T05:00:13.796Z,10.60
2018-04-24T05:02:42.094Z,10.50
2018-04-24T05:05:10.483Z,10.30
2018-04-24T05:07:38.730Z,10.40
2018-04-24T05:10:07.045Z,10.40
2018-04-24T05:12:35.328Z,10.30
2018-04-24T05:15:04.425Z,10.40
2018-04-24T05:17:33.481Z,10.40
2018-04-24T05:20:01.944Z,10.40
2018-04-24T05:22:30.207Z,10.50
2018-04-24T05:24:58.572Z,10.50
2018-04-24T05:27:26.873Z,10.60
2018-04-24T05:29:55.185Z,10.60
2018-04-24T05:32:23.473Z,10.70
2018-04-24T05:34:52.557Z,10.70
2018-04-24T05:37:20.886Z,10.70
2018-04-24T05:39:49.166Z,10.80
2018-04-24T05:42:17.545Z,10.80
2018-04-24T05:44:45.897Z,10.90
2018-04-24T05:47:14.365Z,10.90
2018-04-24T05:49:42.755Z,11.10
2018-04-24T05:52:11.156Z,11.10
2018-04-24T05:54:39.504Z,11.30
2018-04-24T05:57:07.904Z,11.40
2018-04-24T05:59:36.226Z,11.60
2018-04-24T06:02:04.558Z,11.70
2018-04-24T06:04:32.852Z,11.80
2018-04-24T06:07:01.215Z,12.00
2018-04-24T06:09:29.505Z,12.10
2018-04-24T06:14:42.024Z,12.20
2018-04-24T06:17:10.446Z,12.30
2018-04-24T06:19:38.768Z,12.30
2018-04-24T06:22:07.869Z,12.40
2018-04-24T06:24:36.924Z,12.40
2018-04-24T06:27:05.232Z,12.40
2018-04-24T06:29:34.291Z,12.50
2018-04-24T06:32:02.612Z,12.50
2018-04-24T06:34:30.934Z,12.50
2018-04-24T06:36:59.248Z,12.60
2018-04-24T06:39:27.533Z,12.60
2018-04-24T06:41:55.851Z,12.60
2018-04-24T06:44:24.197Z,12.70
2018-04-24T06:47:20.404Z,12.80
2018-04-24T06:49:48.723Z,12.90
2018-04-24T06:52:17.049Z,13.00
2018-04-24T06:54:45.356Z,13.10
2018-04-24T06:57:14.451Z,13.20
2018-04-24T06:59:43.533Z,13.30
2018-04-24T07:02:11.878Z,13.30
2018-04-24T07:04:40.253Z,13.40
2018-04-24T07:07:08.611Z,13.40
2018-04-24T07:09:36.998Z,13.40
2018-04-24T07:12:05.407Z,13.40
2018-04-24T07:14:33.697Z,13.50
2018-04-24T07:17:02.009Z,13.50
2018-04-24T07:19:31.106Z,13.60
2018-04-24T07:21:59.523Z,13.50
2018-04-24T07:24:27.871Z,13.70
2018-04-24T07:26:56.181Z,13.80
2018-04-24T07:29:24.528Z,13.80
2018-04-24T07:31:52.828Z,13.90
2018-04-24T07:34:21.175Z,14.00
2018-04-24T07:36:50.241Z,14.00
2018-04-24T07:39:18.583Z,14.00
2018-04-24T07:41:46.907Z,14.10
2018-04-24T07:44:15.270Z,14.20
2018-04-24T07:46:43.561Z,14.20
2018-04-24T07:49:12.667Z,14.30
2018-04-24T07:51:41.721Z,14.30
2018-04-24T07:54:10.024Z,14.30
2018-04-24T07:56:38.323Z,14.40
2018-04-24T07:59:07.416Z,14.40
2018-04-24T08:01:36.469Z,14.50
2018-04-24T08:04:04.783Z,14.40
2018-04-24T08:06:33.839Z,14.50
2018-04-24T08:09:02.153Z,14.40
2018-04-24T08:11:30.464Z,14.60
2018-04-24T08:13:58.782Z,14.70
2018-04-24T08:16:27.094Z,14.80
2018-04-24T08:18:56.178Z,15.00
2018-04-24T08:21:26.198Z,15.00
2018-04-24T08:23:54.530Z,15.00
2018-04-24T08:26:22.835Z,15.20
2018-04-24T08:28:51.172Z,15.20
2018-04-24T08:31:19.464Z,15.30
2018-04-24T08:33:47.844Z,15.30
2018-04-24T08:36:16.849Z,15.30
2018-04-24T08:38:45.165Z,15.30
2018-04-24T08:41:14.212Z,15.30
2018-04-24T08:43:42.502Z,15.30
2018-04-24T08:46:10.813Z,15.40
2018-04-24T08:48:39.860Z,15.40
2018-04-24T08:51:08.181Z,15.30
2018-04-24T08:53:36.473Z,15.40
2018-04-24T08:56:04.793Z,15.40
2018-04-24T08:58:33.096Z,15.50
2018-04-24T09:01:01.405Z,15.40
2018-04-24T09:03:29.718Z,15.40
2018-04-24T09:05:58.029Z,15.40
2018-04-24T09:08:26.389Z,15.40
2018-04-24T09:10:54.668Z,15.40
2018-04-24T09:13:22.963Z,15.40
2018-04-24T09:15:51.280Z,15.50
2018-04-24T09:18:19.562Z,15.60
2018-04-24T09:20:47.881Z,15.70
2018-04-24T09:23:16.168Z,15.90
2018-04-24T09:25:44.482Z,16.00
2018-04-24T09:28:12.771Z,16.00
2018-04-24T09:30:42.803Z,16.10
2018-04-24T09:33:11.137Z,16.20
2018-04-24T09:35:40.199Z,16.20
2018-04-24T09:38:08.540Z,16.40
2018-04-24T09:40:36.920Z,16.50
2018-04-24T09:43:05.305Z,16.60
2018-04-24T09:45:33.681Z,16.70
2018-04-24T09:48:02.032Z,16.80
2018-04-24T09:50:30.430Z,16.70
2018-04-24T09:52:58.764Z,16.80
2018-04-24T09:55:27.096Z,16.70
2018-04-24T09:57:55.462Z,16.70
2018-04-24T10:00:29.416Z,16.70
2018-04-24T10:02:57.715Z,16.80
2018-04-24T10:05:26.060Z,16.90
2018-04-24T10:07:54.435Z,16.90
2018-04-24T10:10:22.660Z,16.90
2018-04-24T10:12:51.749Z,16.80
2018-04-24T10:15:20.032Z,16.80
2018-04-24T10:17:49.121Z,16.90
2018-04-24T10:20:17.407Z,16.90
2018-04-24T10:22:46.485Z,17.20
2018-04-24T10:25:14.775Z,17.20
2018-04-24T10:27:43.846Z,17.40
2018-04-24T10:30:12.133Z,17.40
2018-04-24T10:32:40.441Z,17.40
2018-04-24T10:35:09.483Z,17.50
2018-04-24T10:37:37.789Z,17.40
2018-04-24T10:40:06.072Z,17.50
2018-04-24T10:42:34.383Z,17.60
2018-04-24T10:45:02.672Z,17.70
2018-04-24T10:47:31.112Z,17.80
2018-04-24T10:50:00.180Z,18.10
2018-04-24T10:52:28.485Z,18.10
2018-04-24T10:54:57.529Z,18.40
2018-04-24T10:57:25.832Z,18.40
2018-04-24T10:59:54.141Z,18.50
2018-04-24T11:02:23.208Z,18.70
2018-04-24T11:04:52.272Z,18.70
2018-04-24T11:07:20.583Z,18.70
2018-04-24T11:09:48.861Z,18.70
2018-04-24T11:12:17.177Z,18.70
2018-04-24T11:14:45.469Z,18.80
2018-04-24T11:17:13.800Z,18.80
2018-04-24T11:19:42.079Z,18.80
2018-04-24T11:22:10.388Z,18.70
2018-04-24T11:24:38.679Z,18.70
2018-04-24T11:27:07.005Z,18.60
2018-04-24T11:29:35.296Z,18.60
2018-04-24T11:32:04.388Z,18.90
2018-04-24T11:34:33.432Z,18.90
2018-04-24T11:37:01.759Z,18.90
2018-04-24T11:39:30.038Z,18.80
2018-04-24T11:41:59.112Z,19.00
2018-04-24T11:44:27.404Z,18.90
2018-04-24T11:46:55.722Z,19.10
2018-04-24T11:49:24.028Z,19.20
2018-04-24T11:51:52.328Z,19.30
2018-04-24T11:54:20.637Z,19.20
2018-04-24T11:56:49.696Z,19.10
2018-04-24T11:59:18.008Z,19.10
2018-04-24T12:01:47.153Z,19.40
2018-04-24T12:04:15.550Z,19.40
2018-04-24T12:06:43.894Z,19.40
2018-04-24T12:09:12.315Z,19.60
2018-04-24T12:11:41.437Z,19.40
2018-04-24T12:14:09.799Z,19.50
2018-04-24T12:16:38.892Z,19.60
2018-04-24T12:19:08.031Z,19.30
2018-04-24T12:21:36.342Z,19.30
2018-04-24T12:24:04.729Z,19.20
2018-04-24T12:26:33.093Z,19.30
2018-04-24T12:29:01.550Z,19.40
2018-04-24T12:31:29.854Z,19.50
2018-04-24T12:34:04.061Z,19.50
2018-04-24T12:36:32.551Z,19.50
2018-04-24T12:39:00.875Z,19.50
2018-04-24T12:41:29.180Z,19.50
2018-04-24T12:43:57.490Z,19.60
2018-04-24T12:46:25.778Z,19.70
2018-04-24T12:48:54.877Z,19.50
2018-04-24T12:51:23.157Z,19.50
2018-04-24T12:53:51.477Z,19.50
2018-04-24T12:56:19.801Z,19.70
2018-04-24T12:58:48.121Z,19.80
2018-04-24T13:01:16.409Z,19.90
2018-04-24T13:03:44.758Z,20.10
2018-04-24T13:06:13.033Z,20.10
2018-04-24T13:08:41.356Z,20.20
2018-04-24T13:11:09.640Z,20.20
2018-04-24T13:13:37.968Z,20.20
2018-04-24T13:16:07.016Z,20.30
2018-04-24T13:18:35.398Z,20.30
2018-04-24T13:21:03.650Z,20.40
2018-04-24T13:23:31.960Z,20.30
2018-04-24T13:26:00.237Z,20.40
2018-04-24T13:28:28.550Z,20.40
2018-04-24T13:30:57.596Z,20.50
2018-04-24T13:33:25.900Z,20.50
2018-04-24T13:35:54.180Z,20.60
2018-04-24T13:38:22.506Z,20.60
2018-04-24T13:40:50.802Z,20.60
2018-04-24T13:43:19.106Z,20.80
2018-04-24T13:45:47.428Z,20.80
2018-04-24T13:48:15.726Z,20.90
2018-04-24T13:50:44.073Z,21.00
2018-04-24T13:53:12.363Z,21.10
2018-04-24T13:55:40.687Z,21.20
2018-04-24T13:58:09.020Z,21.30
2018-04-24T14:00:37.304Z,21.40
2018-04-24T14:03:05.611Z,21.40
2018-04-24T14:05:33.924Z,21.30
2018-04-24T14:08:02.214Z,21.50
2018-04-24T14:10:31.300Z,22.00
2018-04-24T14:13:00.347Z,22.10
2018-04-24T14:15:28.689Z,22.10
2018-04-24T14:17:56.967Z,22.20
2018-04-24T14:20:25.272Z,22.20
2018-04-24T14:22:54.327Z,22.40
2018-04-24T14:25:23.395Z,22.50
2018-04-24T14:27:51.711Z,22.50
2018-04-24T14:30:20.021Z,22.50
2018-04-24T14:32:48.308Z,22.60
2018-04-24T14:35:16.621Z,22.50
2018-04-24T14:37:44.895Z,22.60
2018-04-24T14:40:13.209Z,22.70
2018-04-24T14:42:41.572Z,22.80
2018-04-24T14:45:09.835Z,22.80
2018-04-24T14:47:38.892Z,22.90
2018-04-24T14:50:08.151Z,22.80
2018-04-24T14:52:36.397Z,22.90
2018-04-24T14:55:04.709Z,22.90
2018-04-24T14:57:33.000Z,23.00
2018-04-24T15:00:01.322Z,23.00
2018-04-24T15:02:30.385Z,22.90
2018-04-24T15:04:58.689Z,22.90
2018-04-24T15:07:26.981Z,22.80
2018-04-24T15:09:55.300Z,22.70
2018-04-24T15:12:23.589Z,22.60
2018-04-24T15:14:51.900Z,22.60
2018-04-24T15:17:20.180Z,22.60
2018-04-24T15:19:48.504Z,22.60
2018-04-24T15:22:16.793Z,22.60
2018-04-24T15:24:45.117Z,22.50
2018-04-24T15:27:13.398Z,22.50
2018-04-24T15:29:41.693Z,22.60
2018-04-24T15:32:10.005Z,22.50
2018-04-24T15:34:38.312Z,22.50
2018-04-24T15:37:06.623Z,22.40
2018-04-24T15:39:35.674Z,22.50
2018-04-24T15:42:03.996Z,22.50
2018-04-24T15:44:33.049Z,22.60
2018-04-24T15:47:01.368Z,22.60
2018-04-24T15:49:30.486Z,22.60
2018-04-24T15:51:58.777Z,22.50
2018-04-24T15:54:27.064Z,22.60
2018-04-24T15:56:55.374Z,22.70
2018-04-24T15:59:25.430Z,22.70
2018-04-24T16:01:53.749Z,22.70
2018-04-24T16:04:22.036Z,22.80
2018-04-24T16:06:50.359Z,22.80
2018-04-24T16:09:19.127Z,22.80
2018-04-24T16:11:48.262Z,22.80
2018-04-24T16:14:16.565Z,22.80
2018-04-24T16:16:44.924Z,22.90
2018-04-24T16:19:13.319Z,23.00
2018-04-24T16:21:41.629Z,23.10
2018-04-24T16:24:10.758Z,23.30
2018-04-24T16:26:39.137Z,23.30
2018-04-24T16:29:07.508Z,23.20
2018-04-24T16:31:35.864Z,23.20
2018-04-24T16:34:04.924Z,23.10
2018-04-24T16:36:33.233Z,23.10
2018-04-24T16:39:02.292Z,22.90
2018-04-24T16:41:30.642Z,22.90
2018-04-24T16:43:58.929Z,22.90
2018-04-24T16:46:27.296Z,22.80
2018-04-24T16:48:55.532Z,22.70
2018-04-24T16:51:23.846Z,22.60
2018-04-24T16:53:52.140Z,22.60
2018-04-24T16:56:20.461Z,22.60
2018-04-24T16:58:48.749Z,22.50
2018-04-24T17:01:17.842Z,22.40
2018-04-24T17:03:46.904Z,22.30
2018-04-24T17:06:15.386Z,22.30
2018-04-24T17:08:43.615Z,22.10
2018-04-24T17:11:11.995Z,22.00
2018-04-24T17:13:40.321Z,21.90
2018-04-24T17:16:08.660Z,21.80
2018-04-24T17:18:37.061Z,21.70
2018-04-24T17:21:05.393Z,21.60
2018-04-24T17:23:33.759Z,21.50
2018-04-24T17:26:02.920Z,21.30
2018-04-24T17:28:31.281Z,21.30
2018-04-24T17:30:59.616Z,21.30
2018-04-24T17:33:28.764Z,21.10
2018-04-24T17:35:57.103Z,21.10
2018-04-24T17:38:26.251Z,21.00
2018-04-24T17:40:54.670Z,20.90
2018-04-24T17:43:22.972Z,20.90
2018-04-24T17:45:51.324Z,20.90
2018-04-24T17:48:19.705Z,20.80
2018-04-24T17:50:48.818Z,20.60
2018-04-24T17:53:17.900Z,20.50
2018-04-24T17:55:46.948Z,20.50
2018-04-24T17:58:15.273Z,20.50
2018-04-24T18:00:44.331Z,20.40
2018-04-24T18:03:12.648Z,20.40
2018-04-24T18:05:41.696Z,20.20
2018-04-24T18:08:10.005Z,20.20
2018-04-24T18:10:38.311Z,20.10
2018-04-24T18:13:06.680Z,20.00
2018-04-24T18:15:35.745Z,19.70
2018-04-24T18:18:04.081Z,19.70
2018-04-24T18:20:32.381Z,19.60
2018-04-24T18:23:00.696Z,19.50
2018-04-24T18:25:28.984Z,19.40
2018-04-24T18:27:58.133Z,19.00
2018-04-24T18:30:27.186Z,19.00
2018-04-24T18:32:55.510Z,19.00
2018-04-24T18:35:23.810Z,18.90
2018-04-24T18:37:52.133Z,18.80
2018-04-24T18:40:33.993Z,18.70
2018-04-24T18:43:03.104Z,18.60
2018-04-24T18:45:31.389Z,18.60
2018-04-24T18:47:59.740Z,18.50
2018-04-24T18:50:28.025Z,18.40
2018-04-24T18:52:57.105Z,18.10
2018-04-24T18:55:25.410Z,18.10
2018-04-24T18:57:55.565Z,17.60
2018-04-24T19:00:24.731Z,17.40
2018-04-24T19:02:53.121Z,17.40
2018-04-24T19:05:21.501Z,17.40
2018-04-24T19:07:49.898Z,17.30
2018-04-24T19:10:18.306Z,17.40
2018-04-24T19:12:46.730Z,17.30
2018-04-24T19:15:15.183Z,17.30
2018-04-24T19:17:43.501Z,17.30
2018-04-24T19:20:11.801Z,17.20
2018-04-24T19:22:40.108Z,17.10
2018-04-24T19:25:14.028Z,17.00
2018-04-24T19:27:42.345Z,17.00
2018-04-24T19:30:21.274Z,16.70
2018-04-24T19:32:49.613Z,16.60
2018-04-24T19:35:18.681Z,16.40
2018-04-24T19:37:46.984Z,16.40
2018-04-24T19:40:20.916Z,16.40
2018-04-24T19:42:49.297Z,16.30
2018-04-24T19:45:17.599Z,16.40
2018-04-24T19:47:45.903Z,16.10
2018-04-24T19:50:20.175Z,16.00
2018-04-24T19:52:48.476Z,16.10
2018-04-24T19:55:22.413Z,16.00
2018-04-24T19:57:50.736Z,16.00
2018-04-24T20:00:19.084Z,15.90
2018-04-24T20:02:47.417Z,15.70
2018-04-24T20:05:15.804Z,15.70
2018-04-24T20:07:44.188Z,15.70
2018-04-24T20:10:12.605Z,15.70
2018-04-24T20:12:41.728Z,15.70
2018-04-24T20:15:10.122Z,15.70
2018-04-24T20:17:38.466Z,15.70
2018-04-24T20:20:07.665Z,15.60
2018-04-24T20:22:36.764Z,15.60
2018-04-24T20:25:05.901Z,15.50
2018-04-24T20:27:34.205Z,15.50
2018-04-24T20:30:02.578Z,15.50
2018-04-24T20:32:30.909Z,15.50
2018-04-24T20:34:59.269Z,15.50
2018-04-24T20:37:28.352Z,15.40
2018-04-24T20:40:17.026Z,15.30
2018-04-24T20:42:45.400Z,15.40
2018-04-24T20:45:13.817Z,15.40
2018-04-24T20:47:42.107Z,15.30
2018-04-24T20:50:10.432Z,15.20
2018-04-24T20:52:39.368Z,15.20
2018-04-24T20:55:07.754Z,15.20
2018-04-24T20:57:36.040Z,15.10
2018-04-24T21:00:04.353Z,15.10
2018-04-24T21:02:33.428Z,15.00
2018-04-24T21:05:01.824Z,14.90
2018-04-24T21:07:30.179Z,14.90
2018-04-24T21:09:59.341Z,14.90
2018-04-24T21:12:27.625Z,14.80
2018-04-24T21:14:55.941Z,14.90
2018-04-24T21:17:24.238Z,14.80
2018-04-24T21:19:53.344Z,14.60
2018-04-24T21:22:22.392Z,14.60
2018-04-24T21:24:50.691Z,14.60
2018-04-24T21:27:18.982Z,14.60
2018-04-24T21:29:48.064Z,14.40
2018-04-24T21:32:16.364Z,14.40
2018-04-24T21:34:45.464Z,14.30
2018-04-24T21:37:14.539Z,14.30
2018-04-24T21:39:43.632Z,14.20
2018-04-24T21:42:11.919Z,14.10
2018-04-24T21:44:41.024Z,14.00
2018-04-24T21:47:09.315Z,14.00
2018-04-24T21:49:37.605Z,14.00
2018-04-24T21:52:05.913Z,14.00
2018-04-24T21:54:34.209Z,14.00
2018-04-24T21:57:02.517Z,14.00
2018-04-24T21:59:30.816Z,13.90
2018-04-24T22:01:59.148Z,13.90
2018-04-24T22:04:28.218Z,13.90
2018-04-24T22:06:56.596Z,13.80
2018-04-24T22:09:24.994Z,13.80
2018-04-24T22:11:53.385Z,13.80
2018-04-24T22:14:22.560Z,13.40
2018-04-24T22:16:50.942Z,13.40
2018-04-24T22:19:19.303Z,13.30
2018-04-24T22:21:47.699Z,13.20
2018-04-24T22:24:16.070Z,13.30
2018-04-24T22:26:44.441Z,13.30
2018-04-24T22:29:12.824Z,13.30
2018-04-24T22:31:41.201Z,13.20
2018-04-24T22:34:09.540Z,13.20
2018-04-24T22:36:37.953Z,13.10
2018-04-24T22:39:06.297Z,13.10
2018-04-24T22:41:34.697Z,13.20
2018-04-24T22:44:03.090Z,13.20
2018-04-24T22:46:31.509Z,13.10
2018-04-24T22:49:00.603Z,13.10
2018-04-24T22:51:29.708Z,13.10
2018-04-24T22:53:58.832Z,13.10
2018-04-24T22:56:27.185Z,13.00
2018-04-24T22:58:55.535Z,12.90
2018-04-24T23:01:23.953Z,12.90
2018-04-24T23:03:52.284Z,12.80
2018-04-24T23:06:20.658Z,12.80
2018-04-24T23:08:49.069Z,12.80
2018-04-24T23:11:30.041Z,12.80
2018-04-24T23:14:16.324Z,12.70
2018-04-24T23:17:02.468Z,12.80
2018-04-24T23:19:48.765Z,12.70
2018-04-24T23:22:32.137Z,12.80
2018-04-24T23:25:00.492Z,12.80
2018-04-24T23:27:28.937Z,12.70
2018-04-24T23:29:57.244Z,12.70
2018-04-24T23:32:25.559Z,12.70
2018-04-24T23:34:53.857Z,12.70
2018-04-24T23:37:22.166Z,12.50
2018-04-24T23:39:50.474Z,12.40
2018-04-24T23:42:18.780Z,12.30
2018-04-24T23:44:47.073Z,12.30
2018-04-24T23:47:16.153Z,12.30
2018-04-24T23:49:44.444Z,12.30
2018-04-24T23:52:13.524Z,12.30
2018-04-24T23:54:41.812Z,12.30
2018-04-24T23:57:10.133Z,12.30
2018-04-24T23:59:38.425Z,12.30
